Pagina principale
METAR-TAF:

METAR-TAF

Aeroporti :

Aeroporto militare Cameri

Novara, Italia

latitudine: 45-31N, longitudine: 008-40E, altezza: 178 m

Osservazione

Il bollettino è stato emesso 27 minuti fa, alle 09:55 UTC
Temperature 10°C
Umidità 57%
Pressione 1015 hPa
Visibilità: 5000 m
Poco nuvoloso ad un'altezza di 2500 ft
foschia

METAR: LIMN 090955Z /////KT 5000 BR FEW025 10/02 Q1015 RMK BKN SCT080 VIS MIN 5000 WHT

Ora: 11:22 (10:22 UTC)

Previsione

Il bollettino è stato emesso 2 ore e 22 minuti fa, alle 08:00 UTC
Previsione valida dal 09 alle 09 UTC al 09 alle 18 UTC
Vento 6 kt da est
Visibilità 10 km o più
Nubi sparse ad un'altezza di 4000 ft
Temporaneamente
dal 09 alle 09 UTC al 09 alle 11 UTC
Visibilità: 5000 m
foschia

TAF: LIMN 090800Z 0909/0918 09006KT 9999 SCT040 TEMPO 0909/0911 5000 BR

Osservazioni e previsioni meteorologiche di più di 4000 aeroporti (messaggi METAR e TAF).

Le stazioni disponibili sono rappresentate dai dischi gialli e rossi sulla carta.

Puntare il mouse per vedere il nome della stazione.

Clicca sopra per visualizzare le osservazioni e previsioni meteorologiche.

Per cambiare la mappa : fare clic sui pulsanti verdi con una croce nera per ingrandire, il pulsante verde con un trattino per diminuire, o sulla freccia verde per le mappe adiacenti.


METAR-TAF: